Time;durP1;ratioP1;P1;durP2;ratioP2;P2;SDS_P1;SDS_P2;PMS_P1;PMS_P2;Temp;Humidity;BMP_temperature;BMP_pressure;BME280_temperature;BME280_humidity;BME280_pressure;Samples;Min_cycle;Max_cycle;Signal;HPM_P1;HPM_P2
2022/10/04 00:02:20;;;;;;;;;;;7.10;99.90;;;;;;5005074;28;19905;-77
2022/10/04 00:05:00;;;;;;;;;;;7.10;99.90;;;;;;4994464;28;19910;-78
2022/10/04 00:07:28;;;;;;;;;;;7.10;99.90;;;;;;4986897;28;19948;-77
2022/10/04 00:09:56;;;;;;;;;;;7.20;99.90;;;;;;5004853;28;19909;-79
2022/10/04 00:12:25;;;;;;;;;;;7.30;99.90;;;;;;5004410;28;19936;-77
2022/10/04 00:14:52;;;;;;;;;;;7.40;99.90;;;;;;5004808;28;19905;-78
2022/10/04 00:17:23;;;;;;;;;;;7.40;99.90;;;;;;5004892;28;19944;-77
2022/10/04 00:19:50;;;;;;;;;;;7.50;99.90;;;;;;4987044;28;19992;-77
2022/10/04 00:22:19;;;;;;;;;;;7.60;99.90;;;;;;5004264;28;19964;-78
2022/10/04 00:25:03;;;;;;;;;;;7.50;99.90;;;;;;4992896;28;19913;-78
2022/10/04 00:27:29;;;;;;;;;;;7.50;99.90;;;;;;5005368;28;20285;-77
2022/10/04 00:30:00;;;;;;;;;;;7.50;99.90;;;;;;5004503;28;19906;-77
2022/10/04 00:32:30;;;;;;;;;;;7.40;99.90;;;;;;5004741;28;19913;-78
2022/10/04 00:34:56;;;;;;;;;;;7.40;99.90;;;;;;5003924;28;19937;-78
2022/10/04 00:37:24;;;;;;;;;;;7.30;99.90;;;;;;5004394;28;20376;-78
2022/10/04 00:39:58;;;;;;;;;;;7.40;99.90;;;;;;5004361;28;19906;-78
2022/10/04 00:42:31;;;;;;;;;;;7.40;99.90;;;;;;5004301;28;19952;-78
2022/10/04 00:45:01;;;;;;;;;;;7.40;99.90;;;;;;5004047;28;19905;-77
2022/10/04 00:47:42;;;;;;;;;;;7.30;99.90;;;;;;5008353;28;19909;-77
2022/10/04 00:50:16;;;;;;;;;;;7.30;99.90;;;;;;5023481;28;19941;-77
2022/10/04 00:52:48;;;;;;;;;;;7.20;99.90;;;;;;5023643;28;19917;-77
2022/10/04 00:55:40;;;;;;;;;;;7.20;99.90;;;;;;5022901;28;19905;-78
2022/10/04 00:58:12;;;;;;;;;;;7.10;99.90;;;;;;4980717;28;19918;-78
2022/10/04 01:00:38;;;;;;;;;;;7.00;99.90;;;;;;5003668;28;20341;-77
2022/10/04 01:03:06;;;;;;;;;;;7.00;99.90;;;;;;5002885;28;19945;-77
2022/10/04 01:05:34;;;;;;;;;;;7.00;99.90;;;;;;5002546;28;19929;-77
2022/10/04 01:08:12;;;;;;;;;;;7.00;99.90;;;;;;5003815;28;19913;-77
2022/10/04 01:10:41;;;;;;;;;;;7.10;99.90;;;;;;4986401;28;19968;-78
2022/10/04 01:13:12;;;;;;;;;;;7.00;99.90;;;;;;4983608;28;20353;-78
2022/10/04 01:15:56;;;;;;;;;;;7.00;99.90;;;;;;4965849;28;19913;-78
2022/10/04 01:18:22;;;;;;;;;;;7.00;99.90;;;;;;4983142;28;19906;-78
2022/10/04 01:20:47;;;;;;;;;;;7.00;99.90;;;;;;4983345;28;19906;-77
2022/10/04 01:23:30;;;;;;;;;;;7.10;99.90;;;;;;4982777;28;20365;-77
2022/10/04 01:25:55;;;;;;;;;;;7.10;99.90;;;;;;4983288;28;19916;-78
2022/10/04 01:28:21;;;;;;;;;;;7.10;99.90;;;;;;4983560;28;19953;-77
2022/10/04 01:30:47;;;;;;;;;;;7.10;99.90;;;;;;4983176;28;19902;-78
2022/10/04 01:33:12;;;;;;;;;;;7.10;99.90;;;;;;4983718;28;19921;-78
2022/10/04 01:35:38;;;;;;;;;;;7.10;99.90;;;;;;4983368;28;19937;-78
2022/10/04 01:38:07;;;;;;;;;;;7.10;99.90;;;;;;4983308;28;19906;-78
2022/10/04 01:40:33;;;;;;;;;;;7.10;99.90;;;;;;4982939;28;19913;-77
2022/10/04 01:43:05;;;;;;;;;;;7.00;99.90;;;;;;4982483;28;19970;-77
2022/10/04 01:45:46;;;;;;;;;;;7.00;99.90;;;;;;4982872;28;19992;-77
2022/10/04 01:48:17;;;;;;;;;;;6.90;99.90;;;;;;4997439;28;19980;-77
2022/10/04 01:50:44;;;;;;;;;;;6.90;99.90;;;;;;5001720;28;20004;-77
2022/10/04 01:53:17;;;;;;;;;;;6.80;99.90;;;;;;5001638;28;19914;-78
2022/10/04 01:55:44;;;;;;;;;;;6.80;99.90;;;;;;5003203;28;19996;-77
2022/10/04 01:58:12;;;;;;;;;;;6.70;99.90;;;;;;5022103;28;19960;-78
2022/10/04 02:00:41;;;;;;;;;;;6.70;99.90;;;;;;5016725;28;19917;-77
2022/10/04 02:03:10;;;;;;;;;;;6.70;99.90;;;;;;5000691;28;19940;-77
2022/10/04 02:05:38;;;;;;;;;;;6.70;99.90;;;;;;4983595;28;19913;-77
2022/10/04 02:08:06;;;;;;;;;;;6.60;99.90;;;;;;4983463;28;19906;-78
2022/10/04 02:10:35;;;;;;;;;;;6.60;99.90;;;;;;5000916;28;19906;-77
2022/10/04 02:13:01;;;;;;;;;;;6.60;99.90;;;;;;5001538;28;19914;-77
2022/10/04 02:15:27;;;;;;;;;;;6.60;99.90;;;;;;4982749;28;19909;-78
2022/10/04 02:17:54;;;;;;;;;;;6.60;99.90;;;;;;5000509;28;20257;-77
2022/10/04 02:20:21;;;;;;;;;;;6.60;99.90;;;;;;5001106;28;19912;-78
2022/10/04 02:22:49;;;;;;;;;;;6.60;99.90;;;;;;5012598;28;19909;-77
2022/10/04 02:25:17;;;;;;;;;;;6.50;99.90;;;;;;5002962;28;19912;-78
2022/10/04 02:27:43;;;;;;;;;;;6.50;99.90;;;;;;5019395;28;19901;-77
2022/10/04 02:30:09;;;;;;;;;;;6.50;99.90;;;;;;5001778;28;20419;-77
2022/10/04 02:35:20;;;;;;;;;;;6.50;99.90;;;;;;5019996;28;19916;-78
2022/10/04 02:37:48;;;;;;;;;;;6.40;99.90;;;;;;5020391;28;19906;-78
2022/10/04 02:40:18;;;;;;;;;;;6.40;99.90;;;;;;5020193;28;20004;-77
2022/10/04 02:42:50;;;;;;;;;;;6.40;99.90;;;;;;5002187;28;19906;-77
2022/10/04 02:45:22;;;;;;;;;;;6.40;99.90;;;;;;5001994;28;19910;-78
2022/10/04 02:47:58;;;;;;;;;;;6.40;99.90;;;;;;5019123;28;19996;-77
2022/10/04 02:50:34;;;;;;;;;;;6.40;99.90;;;;;;5019626;28;19906;-77
2022/10/04 02:53:11;;;;;;;;;;;6.30;99.90;;;;;;5019074;28;19913;-77
2022/10/04 02:55:37;;;;;;;;;;;6.30;99.90;;;;;;5006943;28;20012;-77
2022/10/04 02:58:07;;;;;;;;;;;6.20;99.90;;;;;;5000024;28;19938;-77
2022/10/04 03:00:43;;;;;;;;;;;6.40;99.90;;;;;;4999367;28;20325;-77
2022/10/04 03:03:12;;;;;;;;;;;6.20;99.90;;;;;;5000363;28;19906;-77
2022/10/04 03:05:37;;;;;;;;;;;6.10;99.90;;;;;;4981902;28;19996;-77
2022/10/04 03:08:03;;;;;;;;;;;6.10;99.90;;;;;;4999879;28;19945;-77
2022/10/04 03:10:29;;;;;;;;;;;6.10;99.90;;;;;;4982467;28;19905;-78
2022/10/04 03:12:55;;;;;;;;;;;6.10;99.90;;;;;;4999848;28;19989;-78
2022/10/04 03:15:20;;;;;;;;;;;6.10;99.90;;;;;;4982648;28;19934;-78
2022/10/04 03:17:46;;;;;;;;;;;6.10;99.90;;;;;;4999355;28;19901;-77
2022/10/04 03:20:14;;;;;;;;;;;6.10;99.90;;;;;;4993251;28;20005;-78
2022/10/04 03:22:43;;;;;;;;;;;6.10;99.90;;;;;;5001645;28;19916;-78
2022/10/04 03:25:13;;;;;;;;;;;6.10;99.90;;;;;;5019796;28;19906;-77
2022/10/04 03:27:41;;;;;;;;;;;6.00;99.90;;;;;;5018593;28;19902;-78
2022/10/04 03:30:11;;;;;;;;;;;6.00;99.90;;;;;;5002011;28;20323;-77
2022/10/04 03:32:38;;;;;;;;;;;6.00;99.90;;;;;;5000783;28;19955;-77
2022/10/04 03:35:06;;;;;;;;;;;6.00;99.90;;;;;;5017623;28;20337;-77
2022/10/04 03:37:35;;;;;;;;;;;5.90;99.90;;;;;;5019183;28;20257;-78
2022/10/04 03:40:00;;;;;;;;;;;6.00;99.90;;;;;;5019507;28;19909;-77
2022/10/04 03:42:33;;;;;;;;;;;5.90;99.90;;;;;;5019095;28;19913;-78
2022/10/04 03:44:59;;;;;;;;;;;5.80;99.90;;;;;;5019002;28;19963;-78
2022/10/04 03:47:30;;;;;;;;;;;5.90;99.90;;;;;;5001308;28;19913;-78
2022/10/04 03:49:57;;;;;;;;;;;5.80;99.90;;;;;;4989915;28;19917;-77
2022/10/04 03:52:24;;;;;;;;;;;5.90;99.90;;;;;;5014064;28;19921;-78
2022/10/04 03:54:51;;;;;;;;;;;5.80;99.90;;;;;;5018901;28;19912;-78
2022/10/04 03:57:17;;;;;;;;;;;5.80;99.90;;;;;;5018993;28;20008;-78
2022/10/04 03:59:42;;;;;;;;;;;5.90;99.90;;;;;;5018738;28;19944;-77
2022/10/04 04:02:27;;;;;;;;;;;6.00;99.90;;;;;;5019138;28;20431;-77
2022/10/04 04:05:11;;;;;;;;;;;6.00;99.90;;;;;;5001539;28;19909;-77
2022/10/04 04:07:49;;;;;;;;;;;6.00;99.90;;;;;;5001725;28;19935;-78
2022/10/04 04:10:17;;;;;;;;;;;6.00;99.90;;;;;;5019636;28;20241;-78
2022/10/04 04:12:46;;;;;;;;;;;6.10;99.90;;;;;;5020049;28;19943;-78
2022/10/04 04:15:13;;;;;;;;;;;6.10;99.90;;;;;;5027787;28;19977;-78
2022/10/04 04:17:40;;;;;;;;;;;6.00;99.90;;;;;;5012943;28;20000;-78
2022/10/04 04:20:15;;;;;;;;;;;6.00;99.90;;;;;;5029716;28;20336;-78
2022/10/04 04:22:42;;;;;;;;;;;6.00;99.90;;;;;;5028508;28;19905;-78
2022/10/04 04:25:12;;;;;;;;;;;6.10;99.90;;;;;;5025046;28;19902;-78
2022/10/04 04:27:40;;;;;;;;;;;6.00;99.90;;;;;;5021630;28;19906;-78
2022/10/04 04:30:07;;;;;;;;;;;6.10;99.90;;;;;;5022059;28;19992;-78
2022/10/04 04:32:35;;;;;;;;;;;6.00;99.90;;;;;;5020845;28;19975;-78
2022/10/04 04:35:11;;;;;;;;;;;6.10;99.90;;;;;;5021644;28;20910;-78
2022/10/04 04:37:37;;;;;;;;;;;6.10;99.90;;;;;;5020819;28;20340;-77
2022/10/04 04:40:19;;;;;;;;;;;6.10;99.90;;;;;;5008859;28;19917;-78
2022/10/04 04:42:45;;;;;;;;;;;6.10;99.90;;;;;;5014310;28;19972;-78
2022/10/04 04:45:31;;;;;;;;;;;6.30;99.90;;;;;;5021582;28;19912;-78
2022/10/04 04:47:57;;;;;;;;;;;6.10;99.90;;;;;;5020604;28;19912;-78
2022/10/04 04:50:24;;;;;;;;;;;6.10;99.90;;;;;;5022341;28;19905;-77
2022/10/04 04:52:54;;;;;;;;;;;6.10;99.90;;;;;;5024804;28;19914;-78
2022/10/04 04:55:21;;;;;;;;;;;6.10;99.90;;;;;;5005712;28;19933;-77
2022/10/04 04:57:47;;;;;;;;;;;6.10;99.90;;;;;;5002424;28;19921;-78
2022/10/04 05:00:17;;;;;;;;;;;6.10;99.90;;;;;;5003914;28;19906;-78
2022/10/04 05:02:50;;;;;;;;;;;6.10;99.90;;;;;;5003100;28;19913;-77
2022/10/04 05:05:20;;;;;;;;;;;6.30;99.90;;;;;;5003204;28;20369;-78
2022/10/04 05:07:46;;;;;;;;;;;6.20;99.90;;;;;;5002433;28;20364;-77
2022/10/04 05:10:21;;;;;;;;;;;6.30;99.90;;;;;;5000510;28;19906;-77
2022/10/04 05:12:47;;;;;;;;;;;7.40;99.90;;;;;;4999640;28;19913;-77
2022/10/04 05:15:12;;;;;;;;;;;8.00;99.90;;;;;;4990894;28;20273;-77
2022/10/04 05:17:38;;;;;;;;;;;8.70;99.90;;;;;;4980622;28;19906;-77
2022/10/04 05:20:04;;;;;;;;;;;8.90;99.90;;;;;;4983013;28;19969;-77
2022/10/04 05:22:30;;;;;;;;;;;8.70;99.90;;;;;;4983183;28;19906;-78
2022/10/04 05:24:57;;;;;;;;;;;8.50;99.90;;;;;;4983008;28;19956;-77
2022/10/04 05:27:29;;;;;;;;;;;8.20;99.90;;;;;;4983213;28;19914;-77
2022/10/04 05:30:13;;;;;;;;;;;7.90;99.90;;;;;;4985033;28;19906;-76
2022/10/04 05:32:39;;;;;;;;;;;7.70;99.90;;;;;;4991714;28;20012;-76
2022/10/04 05:35:14;;;;;;;;;;;7.50;99.90;;;;;;5001015;28;19952;-77
2022/10/04 05:37:44;;;;;;;;;;;7.40;99.90;;;;;;5001218;28;19914;-77
2022/10/04 05:40:12;;;;;;;;;;;7.30;99.90;;;;;;5002048;28;19906;-77
2022/10/04 05:42:40;;;;;;;;;;;7.30;99.90;;;;;;5001095;28;19906;-77
2022/10/04 05:45:15;;;;;;;;;;;7.30;99.90;;;;;;5002725;28;19905;-77
2022/10/04 05:47:41;;;;;;;;;;;7.20;99.90;;;;;;5001794;28;19913;-76
2022/10/04 05:50:13;;;;;;;;;;;7.20;99.90;;;;;;5001641;28;19905;-77
2022/10/04 05:52:39;;;;;;;;;;;7.30;99.90;;;;;;5000536;28;19949;-77
2022/10/04 05:55:10;;;;;;;;;;;7.30;99.90;;;;;;5001161;28;19909;-76
2022/10/04 05:57:36;;;;;;;;;;;7.30;99.90;;;;;;5018502;28;19956;-77
2022/10/04 06:00:31;;;;;;;;;;;7.40;99.90;;;;;;5021427;28;19906;-77
2022/10/04 06:02:56;;;;;;;;;;;7.50;99.90;;;;;;4968200;28;19907;-77
2022/10/04 06:05:26;;;;;;;;;;;7.50;99.90;;;;;;5002946;28;20279;-77
2022/10/04 06:08:12;;;;;;;;;;;7.60;99.90;;;;;;5003375;28;19905;-76
2022/10/04 06:10:46;;;;;;;;;;;7.70;99.90;;;;;;4983791;28;19910;-77
2022/10/04 06:13:18;;;;;;;;;;;7.70;99.90;;;;;;5000866;28;20356;-77
2022/10/04 06:15:51;;;;;;;;;;;7.80;99.90;;;;;;4982981;28;19906;-77
2022/10/04 06:18:17;;;;;;;;;;;7.90;99.90;;;;;;4983082;28;19917;-77
2022/10/04 06:20:58;;;;;;;;;;;8.00;99.90;;;;;;4982952;28;19906;-77
2022/10/04 06:23:25;;;;;;;;;;;8.10;99.90;;;;;;4982751;28;19912;-77
2022/10/04 06:25:55;;;;;;;;;;;8.30;99.90;;;;;;4982297;28;19906;-77
2022/10/04 06:28:23;;;;;;;;;;;8.30;99.90;;;;;;5000999;28;19939;-76
2022/10/04 06:30:51;;;;;;;;;;;8.40;99.90;;;;;;4982300;28;19906;-77
2022/10/04 06:33:35;;;;;;;;;;;8.60;99.90;;;;;;4998821;28;19913;-77
2022/10/04 06:36:21;;;;;;;;;;;8.70;99.90;;;;;;4998925;28;19929;-77
2022/10/04 06:39:02;;;;;;;;;;;8.80;99.90;;;;;;5000465;28;19910;-77
2022/10/04 06:41:35;;;;;;;;;;;8.90;99.90;;;;;;5000217;28;19906;-77
2022/10/04 06:44:26;;;;;;;;;;;9.10;99.90;;;;;;4999235;28;19906;-76
2022/10/04 06:47:10;;;;;;;;;;;9.20;99.90;;;;;;4999530;28;19906;-77
2022/10/04 06:49:48;;;;;;;;;;;9.20;99.90;;;;;;5005046;28;19963;-77
2022/10/04 06:52:33;;;;;;;;;;;9.30;99.90;;;;;;4992930;28;19917;-77
2022/10/04 06:55:04;;;;;;;;;;;9.40;99.90;;;;;;5018938;28;19905;-77
2022/10/04 06:57:49;;;;;;;;;;;9.40;99.90;;;;;;5000288;28;19921;-76
2022/10/04 07:00:16;;;;;;;;;;;9.40;99.90;;;;;;5016561;28;20371;-79
2022/10/04 07:02:50;;;;;;;;;;;9.50;99.90;;;;;;5013753;28;19956;-77
2022/10/04 07:05:16;;;;;;;;;;;9.60;99.90;;;;;;5013936;28;19911;-78
2022/10/04 07:07:46;;;;;;;;;;;9.60;99.90;;;;;;4995873;28;20367;-77
2022/10/04 07:10:15;;;;;;;;;;;9.80;99.90;;;;;;4995606;28;19906;-76
2022/10/04 07:12:43;;;;;;;;;;;9.90;99.90;;;;;;5012426;28;19921;-76
2022/10/04 07:15:18;;;;;;;;;;;9.90;99.90;;;;;;4995708;28;19982;-77
2022/10/04 07:17:46;;;;;;;;;;;10.00;99.90;;;;;;5013154;28;20352;-78
2022/10/04 07:20:18;;;;;;;;;;;10.10;99.90;;;;;;5013308;28;19912;-79
2022/10/04 07:22:51;;;;;;;;;;;10.10;99.90;;;;;;5012545;28;19905;-78
2022/10/04 07:25:19;;;;;;;;;;;10.30;99.90;;;;;;5013139;28;19929;-77
2022/10/04 07:30:37;;;;;;;;;;;10.60;99.90;;;;;;5013059;28;20043;-77
2022/10/04 07:33:05;;;;;;;;;;;10.70;99.90;;;;;;4995380;28;20263;-77
2022/10/04 07:35:38;;;;;;;;;;;10.90;99.90;;;;;;4982081;28;19948;-76
2022/10/04 07:38:12;;;;;;;;;;;10.90;99.90;;;;;;4993409;28;20357;-77
2022/10/04 07:40:42;;;;;;;;;;;11.10;99.90;;;;;;4993520;28;19909;-76
2022/10/04 07:43:13;;;;;;;;;;;11.30;99.90;;;;;;4993258;28;19913;-77
2022/10/04 07:45:40;;;;;;;;;;;11.40;99.90;;;;;;4993314;28;19913;-77
2022/10/04 07:48:14;;;;;;;;;;;11.80;99.90;;;;;;4993530;28;19909;-77
2022/10/04 07:50:39;;;;;;;;;;;;;;;;;;4975578;28;19906;-79
2022/10/04 07:53:12;;;;;;;;;;;12.50;99.50;;;;;;4993231;28;19918;-78
2022/10/04 07:55:45;;;;;;;;;;;12.80;99.90;;;;;;4975497;28;19905;-77
2022/10/04 07:58:22;;;;;;;;;;;13.00;99.90;;;;;;4993372;28;20001;-78
2022/10/04 08:00:51;;;;;;;;;;;13.10;99.90;;;;;;4993258;28;19910;-77
2022/10/04 08:03:25;;;;;;;;;;;13.30;99.90;;;;;;4993094;28;20276;-79
2022/10/04 08:05:57;;;;;;;;;;;13.50;98.00;;;;;;5011415;28;19957;-79
2022/10/04 08:08:59;;;;;;;;;;;13.60;95.90;;;;;;5011924;28;19963;-77
2022/10/04 08:11:43;;;;;;;;;;;13.80;95.40;;;;;;4994743;28;19999;-76
2022/10/04 08:14:27;;;;;;;;;;;14.00;94.70;;;;;;5014138;28;19960;-76
2022/10/04 08:16:59;;;;;;;;;;;14.10;93.90;;;;;;4998953;28;19906;-77
2022/10/04 08:19:35;;;;;;;;;;;14.20;93.90;;;;;;5016488;28;19905;-77
2022/10/04 08:22:02;;;;;;;;;;;14.30;93.00;;;;;;4998633;28;19906;-76
2022/10/04 08:24:34;;;;;;;;;;;14.40;93.00;;;;;;5015374;28;19914;-78
2022/10/04 08:27:05;;;;;;;;;;;14.50;93.40;;;;;;5016298;28;19953;-76
2022/10/04 08:29:49;;;;;;;;;;;14.70;89.50;;;;;;4998569;28;20004;-77
2022/10/04 08:32:29;;;;;;;;;;;14.90;86.80;;;;;;5014833;28;19910;-77
2022/10/04 08:35:20;;;;;;;;;;;15.00;84.20;;;;;;5016434;28;19909;-76
2022/10/04 08:37:49;;;;;;;;;;;15.10;88.90;;;;;;4998159;28;19952;-77
2022/10/04 08:40:17;;;;;;;;;;;15.20;99.70;;;;;;4998577;28;20245;-77
2022/10/04 08:43:01;;;;;;;;;;;15.40;99.60;;;;;;5016009;28;19964;-77
2022/10/04 08:45:43;;;;;;;;;;;15.50;99.80;;;;;;4998420;28;19944;-77
2022/10/04 08:48:09;;;;;;;;;;;15.70;99.50;;;;;;4992287;28;19916;-77
2022/10/04 08:50:41;;;;;;;;;;;15.80;96.90;;;;;;5016038;28;20003;-77
2022/10/04 08:53:06;;;;;;;;;;;16.00;96.90;;;;;;5015981;28;19913;-77
2022/10/04 08:55:33;;;;;;;;;;;16.10;97.70;;;;;;4997976;28;19968;-76
2022/10/04 08:58:00;;;;;;;;;;;16.20;97.10;;;;;;4997457;28;19965;-76
2022/10/04 09:00:45;;;;;;;;;;;16.30;94.00;;;;;;5015750;28;19905;-77
2022/10/04 09:03:11;;;;;;;;;;;16.30;95.10;;;;;;4997886;28;20300;-77
2022/10/04 09:05:52;;;;;;;;;;;16.20;93.90;;;;;;5015745;28;19959;-77
2022/10/04 09:08:18;;;;;;;;;;;16.30;94.60;;;;;;5015627;28;20000;-77
2022/10/04 09:10:56;;;;;;;;;;;16.30;93.90;;;;;;5014653;28;20383;-77
2022/10/04 09:13:40;;;;;;;;;;;16.40;92.50;;;;;;5015477;28;19917;-77
2022/10/04 09:16:24;;;;;;;;;;;16.30;93.10;;;;;;4997794;28;20252;-77
2022/10/04 09:18:58;;;;;;;;;;;16.30;92.70;;;;;;5015330;28;19913;-77
2022/10/04 09:21:40;;;;;;;;;;;16.40;92.30;;;;;;4997528;28;19906;-77
2022/10/04 09:24:17;;;;;;;;;;;16.40;92.10;;;;;;5015305;28;20361;-77
2022/10/04 09:26:44;;;;;;;;;;;16.40;92.40;;;;;;5013991;28;19912;-77
2022/10/04 09:29:22;;;;;;;;;;;16.50;92.50;;;;;;5002307;28;20267;-77
2022/10/04 09:31:54;;;;;;;;;;;16.60;98.10;;;;;;4995518;28;20005;-77
2022/10/04 09:34:26;;;;;;;;;;;16.60;98.20;;;;;;4977786;28;19914;-77
2022/10/04 09:36:58;;;;;;;;;;;16.70;95.30;;;;;;4995495;28;19996;-77
2022/10/04 09:39:46;;;;;;;;;;;16.70;95.50;;;;;;4995460;28;20027;-77
2022/10/04 09:42:26;;;;;;;;;;;16.80;95.60;;;;;;4958699;28;19949;-76
2022/10/04 09:44:52;;;;;;;;;;;16.80;93.20;;;;;;4995113;28;19909;-77
2022/10/04 09:47:20;;;;;;;;;;;16.80;92.80;;;;;;4995553;28;19952;-77
2022/10/04 09:49:49;;;;;;;;;;;16.90;93.60;;;;;;4977994;28;20268;-77
2022/10/04 09:52:14;;;;;;;;;;;16.90;92.70;;;;;;4995138;28;19960;-76
2022/10/04 09:54:44;;;;;;;;;;;17.00;94.00;;;;;;4994911;28;19910;-76
2022/10/04 09:57:18;;;;;;;;;;;17.00;93.40;;;;;;4974401;28;19965;-77
2022/10/04 09:59:53;;;;;;;;;;;17.10;91.60;;;;;;4974411;28;19910;-77
2022/10/04 10:02:40;;;;;;;;;;;17.20;93.20;;;;;;4973903;28;19912;-77
2022/10/04 10:05:21;;;;;;;;;;;17.10;92.00;;;;;;4974060;28;20377;-76
2022/10/04 10:07:54;;;;;;;;;;;17.00;91.40;;;;;;4975419;28;19906;-76
2022/10/04 10:13:39;;;;;;;;;;;17.20;92.20;;;;;;4975161;28;20288;-76
2022/10/04 10:16:04;;;;;;;;;;;17.20;92.10;;;;;;4975352;28;19928;-75
2022/10/04 10:18:36;;;;;;;;;;;17.10;91.50;;;;;;4975235;28;20353;-75
2022/10/04 10:21:04;;;;;;;;;;;17.00;91.40;;;;;;4975221;28;19906;-75
2022/10/04 10:23:48;;;;;;;;;;;17.20;91.00;;;;;;4975022;28;20372;-74
2022/10/04 10:26:26;;;;;;;;;;;17.30;84.70;;;;;;4975162;28;19932;-75
2022/10/04 10:28:51;;;;;;;;;;;17.40;87.80;;;;;;4981022;28;19917;-76
2022/10/04 10:31:23;;;;;;;;;;;17.50;90.70;;;;;;4992905;28;19905;-75
2022/10/04 10:34:07;;;;;;;;;;;17.60;92.50;;;;;;4994360;28;19971;-75
2022/10/04 10:36:51;;;;;;;;;;;17.70;95.10;;;;;;4992614;28;19948;-75
2022/10/04 10:39:26;;;;;;;;;;;17.80;92.80;;;;;;4994218;28;19913;-75
2022/10/04 10:41:51;;;;;;;;;;;17.80;92.20;;;;;;4994248;28;20000;-76
2022/10/04 10:44:28;;;;;;;;;;;17.80;93.20;;;;;;4992846;28;19952;-76
2022/10/04 10:47:17;;;;;;;;;;;17.90;92.80;;;;;;4994068;28;19996;-76
2022/10/04 10:49:50;;;;;;;;;;;18.00;93.60;;;;;;4994245;28;19928;-75
2022/10/04 10:52:32;;;;;;;;;;;18.10;91.40;;;;;;4994013;28;19933;-76
2022/10/04 10:55:13;;;;;;;;;;;18.10;90.90;;;;;;4992576;28;19906;-76
2022/10/04 10:57:57;;;;;;;;;;;18.20;91.10;;;;;;5011113;28;19949;-76
2022/10/04 11:00:25;;;;;;;;;;;18.20;88.80;;;;;;4998863;28;19910;-75
2022/10/04 11:03:15;;;;;;;;;;;18.30;88.90;;;;;;5012523;28;19920;-75
2022/10/04 11:06:00;;;;;;;;;;;18.30;89.50;;;;;;4969005;28;19909;-76
2022/10/04 11:08:41;;;;;;;;;;;18.40;87.20;;;;;;5013320;28;20011;-76
2022/10/04 11:11:12;;;;;;;;;;;18.50;82.50;;;;;;4995753;28;19961;-76
2022/10/04 11:13:48;;;;;;;;;;;18.60;80.90;;;;;;5013222;28;19952;-75
2022/10/04 11:16:23;;;;;;;;;;;18.60;60.00;;;;;;5013207;28;19905;-76
2022/10/04 11:19:07;;;;;;;;;;;18.70;79.50;;;;;;5012997;28;19912;-76
2022/10/04 11:22:06;;;;;;;;;;;18.70;81.30;;;;;;5012901;28;20418;-77
2022/10/04 11:24:33;;;;;;;;;;;18.80;80.50;;;;;;5012718;28;19913;-76
2022/10/04 11:26:58;;;;;;;;;;;18.90;77.80;;;;;;5012911;28;20375;-78
2022/10/04 11:29:29;;;;;;;;;;;19.10;64.90;;;;;;4997063;28;19909;-78
2022/10/04 11:32:16;;;;;;;;;;;19.20;61.30;;;;;;4975908;28;20344;-77
2022/10/04 11:34:49;;;;;;;;;;;19.30;60.00;;;;;;4993458;28;20403;-77
2022/10/04 11:37:33;;;;;;;;;;;19.40;59.90;;;;;;4993498;28;19913;-77
2022/10/04 11:40:08;;;;;;;;;;;19.60;61.70;;;;;;4992096;28;19953;-77
2022/10/04 11:42:52;;;;;;;;;;;19.80;59.80;;;;;;4993211;28;19909;-77
2022/10/04 11:45:32;;;;;;;;;;;19.80;57.50;;;;;;4991943;28;20315;-77
2022/10/04 11:48:10;;;;;;;;;;;19.90;58.00;;;;;;4975365;28;19910;-77
2022/10/04 11:50:41;;;;;;;;;;;19.70;69.10;;;;;;5002362;28;19944;-79
2022/10/04 11:53:07;;;;;;;;;;;19.60;71.30;;;;;;4975692;28;20068;-77
2022/10/04 11:55:53;;;;;;;;;;;19.40;74.00;;;;;;4993249;28;20008;-77
2022/10/04 11:58:27;;;;;;;;;;;19.50;73.50;;;;;;4993260;28;19918;-78
2022/10/04 12:01:30;;;;;;;;;;;19.40;76.00;;;;;;4991741;28;19909;-77
2022/10/04 12:03:56;;;;;;;;;;;19.40;78.60;;;;;;5012755;28;19959;-77
2022/10/04 12:06:21;;;;;;;;;;;19.30;78.30;;;;;;4994374;28;20332;-77
2022/10/04 12:08:53;;;;;;;;;;;19.30;78.40;;;;;;5012762;28;19993;-77
2022/10/04 12:12:35;;;;;;;;;;;19.30;77.70;;;;;;4995170;28;19956;-77
2022/10/04 12:14:27;;;;;;;;;;;19.40;77.20;;;;;;5010530;28;19917;-77
2022/10/04 12:17:27;;;;;;;;;;;19.40;75.90;;;;;;5012461;28;19948;-77
2022/10/04 12:19:56;;;;;;;;;;;19.40;74.40;;;;;;4963734;28;19912;-77
2022/10/04 12:22:24;;;;;;;;;;;19.40;71.30;;;;;;5012545;28;19929;-77
2022/10/04 12:25:03;;;;;;;;;;;19.20;71.80;;;;;;5012518;28;19909;-77
2022/10/04 12:27:28;;;;;;;;;;;19.10;83.90;;;;;;5011857;28;20024;-77
2022/10/04 12:30:00;;;;;;;;;;;19.00;87.30;;;;;;4994846;28;19921;-77
2022/10/04 12:32:34;;;;;;;;;;;19.00;90.50;;;;;;5012263;28;19920;-77
2022/10/04 12:35:08;;;;;;;;;;;19.10;66.40;;;;;;5012452;28;20001;-77
2022/10/04 12:37:52;;;;;;;;;;;19.20;63.50;;;;;;5012438;28;19912;-77
2022/10/04 12:40:25;;;;;;;;;;;19.20;64.00;;;;;;5012373;28;19997;-77
2022/10/04 12:42:57;;;;;;;;;;;19.20;64.10;;;;;;4994525;28;19935;-78
2022/10/04 12:45:41;;;;;;;;;;;19.20;63.70;;;;;;5012143;28;19937;-77
2022/10/04 12:48:12;;;;;;;;;;;19.20;65.40;;;;;;5004167;28;20325;-77
2022/10/04 12:50:46;;;;;;;;;;;19.20;64.30;;;;;;4993645;28;19916;-76
2022/10/04 12:53:35;;;;;;;;;;;19.10;64.90;;;;;;4975108;28;19918;-79
2022/10/04 12:56:04;;;;;;;;;;;19.10;67.50;;;;;;4971823;28;19922;-79
2022/10/04 12:58:38;;;;;;;;;;;19.10;68.00;;;;;;4971999;28;19906;-79
2022/10/04 13:01:30;;;;;;;;;;;19.30;71.00;;;;;;4973107;28;19906;-79
2022/10/04 13:04:16;;;;;;;;;;;19.00;70.60;;;;;;4945743;28;20356;-76
2022/10/04 13:06:51;;;;;;;;;;;18.50;85.00;;;;;;4975889;28;19949;-76
2022/10/04 13:09:24;;;;;;;;;;;18.90;78.70;;;;;;4975163;28;19916;-76
2022/10/04 13:11:56;;;;;;;;;;;18.90;78.20;;;;;;4975192;28;19910;-77
2022/10/04 13:14:34;;;;;;;;;;;19.00;74.30;;;;;;4974977;28;19990;-77
2022/10/04 13:17:03;;;;;;;;;;;19.00;71.50;;;;;;4976304;28;19928;-77
2022/10/04 13:19:34;;;;;;;;;;;19.00;70.10;;;;;;4976280;28;19910;-77
2022/10/04 13:22:12;;;;;;;;;;;19.00;70.00;;;;;;4974834;28;19906;-77
2022/10/04 13:24:57;;;;;;;;;;;19.00;67.80;;;;;;4994661;28;19909;-77
2022/10/04 13:27:41;;;;;;;;;;;18.90;68.50;;;;;;4994966;28;20440;-77
2022/10/04 13:30:15;;;;;;;;;;;18.70;91.60;;;;;;4995111;28;19913;-77
2022/10/04 13:32:48;;;;;;;;;;;18.70;91.30;;;;;;4994718;28;19913;-77
2022/10/04 13:35:20;;;;;;;;;;;18.70;90.90;;;;;;4993842;28;19920;-77
2022/10/04 13:38:01;;;;;;;;;;;18.80;91.10;;;;;;4994868;28;20375;-77
2022/10/04 13:40:29;;;;;;;;;;;18.80;90.80;;;;;;4994861;28;19913;-77
2022/10/04 13:43:04;;;;;;;;;;;18.90;90.30;;;;;;4993211;28;20276;-78
2022/10/04 13:45:35;;;;;;;;;;;18.80;90.10;;;;;;4986353;28;20392;-77
2022/10/04 13:48:07;;;;;;;;;;;18.80;90.40;;;;;;4975387;28;20254;-77
2022/10/04 13:50:38;;;;;;;;;;;18.80;90.10;;;;;;4975571;28;19907;-77
2022/10/04 13:58:54;;;;;;;;;;;18.80;89.70;;;;;;4994991;28;19932;-78
2022/10/04 14:01:38;;;;;;;;;;;18.80;90.00;;;;;;4994942;28;19909;-77
2022/10/04 14:04:22;;;;;;;;;;;18.80;90.20;;;;;;4995051;28;19910;-78
2022/10/04 14:07:06;;;;;;;;;;;18.70;90.80;;;;;;4994927;28;19953;-77
2022/10/04 14:09:37;;;;;;;;;;;18.70;90.90;;;;;;4994694;28;19912;-77
2022/10/04 14:12:14;;;;;;;;;;;18.80;92.10;;;;;;5013061;28;19909;-77
2022/10/04 14:14:59;;;;;;;;;;;18.80;91.60;;;;;;5014525;28;20288;-77
2022/10/04 14:17:37;;;;;;;;;;;18.70;91.50;;;;;;5014396;28;19991;-77
2022/10/04 14:20:02;;;;;;;;;;;18.70;91.80;;;;;;5014304;28;19906;-77
2022/10/04 14:22:28;;;;;;;;;;;18.60;91.50;;;;;;5014576;28;19913;-77
2022/10/04 14:25:08;;;;;;;;;;;18.60;90.90;;;;;;5014205;28;19964;-77
2022/10/04 14:27:49;;;;;;;;;;;18.60;90.90;;;;;;5014256;28;19948;-78
2022/10/04 14:30:17;;;;;;;;;;;18.60;91.30;;;;;;5014026;28;19951;-77
2022/10/04 14:32:51;;;;;;;;;;;18.60;91.20;;;;;;5013971;28;20404;-76
2022/10/04 14:35:17;;;;;;;;;;;18.60;91.90;;;;;;5013294;28;19917;-79
2022/10/04 14:37:56;;;;;;;;;;;18.50;90.70;;;;;;5014026;28;19952;-79
2022/10/04 14:40:37;;;;;;;;;;;18.50;90.40;;;;;;4996275;28;20047;-79
2022/10/04 14:43:21;;;;;;;;;;;18.50;78.60;;;;;;4996509;28;19952;-79
2022/10/04 14:46:06;;;;;;;;;;;18.40;81.60;;;;;;5013898;28;19936;-79
2022/10/04 14:48:35;;;;;;;;;;;18.30;69.50;;;;;;5013636;28;19913;-78
2022/10/04 14:51:18;;;;;;;;;;;18.20;65.30;;;;;;5013879;28;19959;-78
2022/10/04 14:53:59;;;;;;;;;;;18.10;66.10;;;;;;5013864;28;20357;-78
2022/10/04 14:56:33;;;;;;;;;;;17.90;66.00;;;;;;5012392;28;20017;-78
2022/10/04 14:58:59;;;;;;;;;;;17.90;66.50;;;;;;4995880;28;19952;-78
2022/10/04 15:01:28;;;;;;;;;;;17.70;66.80;;;;;;5013481;28;19949;-78
2022/10/04 15:04:00;;;;;;;;;;;17.70;66.80;;;;;;5013561;28;19905;-77
2022/10/04 15:06:48;;;;;;;;;;;17.60;66.30;;;;;;4995806;28;19909;-79
2022/10/04 15:09:22;;;;;;;;;;;17.50;66.60;;;;;;5013422;28;20046;-77
2022/10/04 15:11:52;;;;;;;;;;;17.40;68.30;;;;;;5013524;28;19995;-77
2022/10/04 15:14:21;;;;;;;;;;;17.30;68.00;;;;;;5013378;28;19917;-77